createdAt,value
2018-12-25T00:00:16.576Z,9.20
2018-12-25T00:02:45.575Z,9.83
2018-12-25T00:05:14.661Z,7.97
2018-12-25T00:07:44.332Z,9.20
2018-12-25T00:13:09.113Z,7.27
2018-12-25T00:15:38.038Z,8.63
2018-12-25T00:18:06.998Z,8.57
2018-12-25T00:20:35.854Z,8.57
2018-12-25T00:23:04.761Z,7.63
2018-12-25T00:25:36.414Z,8.63
2018-12-25T00:28:05.344Z,11.97
2018-12-25T00:30:34.670Z,11.37
2018-12-25T00:33:03.689Z,21.37
2018-12-25T00:35:32.577Z,13.30
2018-12-25T00:38:01.491Z,24.50
2018-12-25T00:40:30.418Z,9.37
2018-12-25T00:42:59.310Z,9.50
2018-12-25T00:45:28.247Z,8.13
2018-12-25T00:47:57.188Z,8.80
2018-12-25T00:50:26.182Z,10.83
2018-12-25T00:52:55.112Z,11.93
2018-12-25T00:55:24.066Z,10.60
2018-12-25T00:57:53.006Z,9.13
2018-12-25T01:00:21.912Z,8.87
2018-12-25T01:02:52.867Z,8.33
2018-12-25T01:05:21.817Z,10.40
2018-12-25T01:07:50.783Z,9.23
2018-12-25T01:10:19.620Z,8.63
2018-12-25T01:12:48.525Z,9.03
2018-12-25T01:15:17.435Z,10.67
2018-12-25T01:17:46.391Z,7.27
2018-12-25T01:20:15.453Z,10.50
2018-12-25T01:22:44.331Z,9.33
2018-12-25T01:25:13.246Z,7.10
2018-12-25T01:27:42.211Z,12.77
2018-12-25T01:30:11.408Z,7.40
2018-12-25T01:32:40.567Z,7.70
2018-12-25T01:35:09.385Z,7.10
2018-12-25T01:37:38.187Z,7.27
2018-12-25T01:40:07.216Z,6.97
2018-12-25T01:42:35.955Z,7.73
2018-12-25T01:45:05.695Z,7.93
2018-12-25T01:47:34.620Z,8.47
2018-12-25T01:50:04.947Z,7.23
2018-12-25T01:52:33.848Z,7.30
2018-12-25T01:55:02.768Z,11.40
2018-12-25T01:57:31.635Z,7.10
2018-12-25T02:00:00.596Z,11.33
2018-12-25T02:02:29.411Z,8.53
2018-12-25T02:04:58.545Z,8.47
2018-12-25T02:07:27.346Z,10.00
2018-12-25T02:09:56.335Z,6.90
2018-12-25T02:12:25.175Z,7.30
2018-12-25T02:14:54.108Z,6.73
2018-12-25T02:17:22.974Z,6.33
2018-12-25T02:19:51.939Z,6.37
2018-12-25T02:22:20.991Z,6.27
2018-12-25T02:24:49.869Z,7.77
2018-12-25T02:27:18.654Z,5.50
2018-12-25T02:29:47.550Z,7.43
2018-12-25T02:32:17.971Z,9.00
2018-12-25T02:34:47.024Z,6.70
2018-12-25T02:37:15.895Z,6.10
2018-12-25T02:39:44.805Z,6.00
2018-12-25T02:42:15.462Z,6.53
2018-12-25T02:44:44.265Z,5.70
2018-12-25T02:47:13.107Z,12.60
2018-12-25T02:49:50.019Z,7.27
2018-12-25T02:52:12.493Z,8.70
2018-12-25T02:54:41.402Z,6.47
2018-12-25T02:57:10.338Z,6.20
2018-12-25T02:59:39.162Z,6.13
2018-12-25T03:02:08.115Z,7.60
2018-12-25T03:04:36.994Z,6.83
2018-12-25T03:07:05.937Z,9.60
2018-12-25T03:09:34.807Z,11.30
2018-12-25T03:12:03.748Z,10.63
2018-12-25T03:14:32.573Z,6.83
2018-12-25T03:17:01.494Z,8.70
2018-12-25T03:19:30.306Z,7.83
2018-12-25T03:21:59.110Z,7.83
2018-12-25T03:24:28.169Z,8.03
2018-12-25T03:26:56.998Z,6.80
2018-12-25T03:29:25.806Z,6.40
2018-12-25T03:31:55.003Z,6.80
2018-12-25T03:34:23.890Z,10.63
2018-12-25T03:36:52.699Z,7.43
2018-12-25T03:39:21.716Z,10.43
2018-12-25T03:41:50.680Z,6.63
2018-12-25T03:44:19.603Z,9.07
2018-12-25T03:46:48.392Z,7.97
2018-12-25T03:49:17.278Z,7.37
2018-12-25T03:51:46.114Z,8.13
2018-12-25T03:54:15.067Z,13.37
2018-12-25T03:56:43.908Z,7.70
2018-12-25T03:59:12.736Z,7.13
2018-12-25T04:01:41.592Z,7.20
2018-12-25T04:04:10.534Z,6.90
2018-12-25T04:06:39.397Z,7.97
2018-12-25T04:09:08.515Z,8.10
2018-12-25T04:11:37.392Z,7.67
2018-12-25T04:14:06.307Z,6.40
2018-12-25T04:16:35.266Z,7.57
2018-12-25T04:19:04.211Z,6.97
2018-12-25T04:21:33.019Z,7.80
2018-12-25T04:24:01.965Z,8.03
2018-12-25T04:26:30.879Z,8.50
2018-12-25T04:28:59.743Z,8.70
2018-12-25T04:31:29.081Z,8.37
2018-12-25T04:33:58.042Z,7.30
2018-12-25T04:36:26.915Z,7.73
2018-12-25T04:38:55.697Z,7.70
2018-12-25T04:41:24.642Z,8.97
2018-12-25T04:43:53.652Z,7.60
2018-12-25T04:46:22.482Z,7.67
2018-12-25T04:48:51.426Z,15.60
2018-12-25T04:51:20.261Z,8.60
2018-12-25T04:53:49.220Z,13.03
2018-12-25T04:56:18.124Z,9.13
2018-12-25T04:58:47.952Z,10.70
2018-12-25T05:01:16.742Z,7.97
2018-12-25T05:03:48.595Z,13.50
2018-12-25T05:06:17.411Z,9.00
2018-12-25T05:08:46.367Z,11.00
2018-12-25T05:11:15.260Z,11.07
2018-12-25T05:13:44.090Z,8.13
2018-12-25T05:16:13.295Z,10.93
2018-12-25T05:18:42.241Z,14.80
2018-12-25T05:21:11.084Z,9.33
2018-12-25T05:23:39.947Z,12.57
2018-12-25T05:26:08.793Z,13.07
2018-12-25T05:28:37.751Z,9.70
2018-12-25T05:31:08.531Z,10.40
2018-12-25T05:33:38.241Z,11.70
2018-12-25T05:36:07.192Z,14.93
2018-12-25T05:38:36.075Z,10.30
2018-12-25T05:41:04.946Z,10.43
2018-12-25T05:43:33.719Z,13.60
2018-12-25T05:46:02.585Z,9.47
2018-12-25T05:48:31.521Z,10.43
2018-12-25T05:51:00.362Z,12.73
2018-12-25T05:53:29.278Z,9.00
2018-12-25T05:55:58.126Z,15.33
2018-12-25T05:58:26.899Z,13.40
2018-12-25T06:00:55.850Z,15.70
2018-12-25T06:03:24.759Z,13.40
2018-12-25T06:05:53.678Z,14.37
2018-12-25T06:08:22.529Z,14.90
2018-12-25T06:10:51.361Z,16.80
2018-12-25T06:13:20.274Z,13.93
2018-12-25T06:15:49.105Z,9.77
2018-12-25T06:18:17.932Z,12.87
2018-12-25T06:20:54.927Z,13.57
2018-12-25T06:23:17.453Z,10.63
2018-12-25T06:25:46.440Z,14.10
2018-12-25T06:28:15.407Z,13.33
2018-12-25T06:30:44.400Z,14.70
2018-12-25T06:33:13.384Z,9.47
2018-12-25T06:35:42.388Z,11.30
2018-12-25T06:38:11.256Z,12.00
2018-12-25T06:40:40.112Z,16.87
2018-12-25T06:43:09.029Z,14.27
2018-12-25T06:45:37.951Z,13.43
2018-12-25T06:48:07.035Z,16.67
2018-12-25T06:50:36.661Z,11.17
2018-12-25T06:53:05.601Z,14.23
2018-12-25T06:55:36.084Z,11.77
2018-12-25T06:58:05.006Z,10.53
2018-12-25T07:00:33.890Z,16.83
2018-12-25T07:03:02.868Z,13.00
2018-12-25T07:05:31.695Z,12.20
2018-12-25T07:08:00.587Z,11.60
2018-12-25T07:10:29.483Z,11.47
2018-12-25T07:12:58.372Z,9.97
2018-12-25T07:15:33.146Z,13.30
2018-12-25T07:17:57.755Z,13.73
2018-12-25T07:20:26.703Z,11.40
2018-12-25T07:22:55.526Z,11.30
2018-12-25T07:25:25.164Z,15.27
2018-12-25T07:27:54.719Z,16.53
2018-12-25T07:30:26.121Z,18.77
2018-12-25T07:32:55.317Z,14.03
2018-12-25T07:35:24.422Z,11.13
2018-12-25T07:37:53.777Z,10.60
2018-12-25T07:40:22.952Z,11.70
2018-12-25T07:42:51.848Z,12.17
2018-12-25T07:45:20.747Z,17.03
2018-12-25T07:47:51.048Z,13.87
2018-12-25T07:50:20.041Z,11.47
2018-12-25T07:52:48.913Z,11.77
2018-12-25T07:55:17.888Z,11.77
2018-12-25T07:57:46.800Z,11.07
2018-12-25T08:00:15.730Z,14.00
2018-12-25T08:02:44.694Z,13.03
2018-12-25T08:05:13.594Z,15.63
2018-12-25T08:07:42.483Z,15.07
2018-12-25T08:10:11.491Z,13.40
2018-12-25T08:12:40.404Z,11.87
2018-12-25T08:15:09.279Z,15.13
2018-12-25T08:17:38.879Z,12.90
2018-12-25T08:20:08.315Z,14.13
2018-12-25T08:22:37.185Z,22.20
2018-12-25T08:25:06.507Z,12.30
2018-12-25T08:27:35.355Z,13.00
2018-12-25T08:30:05.784Z,15.37
2018-12-25T08:32:35.085Z,12.30
2018-12-25T08:35:04.037Z,19.37
2018-12-25T08:37:33.069Z,21.13
2018-12-25T08:40:01.948Z,14.87
2018-12-25T08:42:31.074Z,13.33
2018-12-25T08:44:59.998Z,12.93
2018-12-25T08:47:28.903Z,12.03
2018-12-25T08:49:57.784Z,16.60
2018-12-25T08:52:26.800Z,17.30
2018-12-25T08:54:55.610Z,12.50
2018-12-25T08:57:26.062Z,15.20
2018-12-25T08:59:54.950Z,13.60
2018-12-25T09:02:24.018Z,13.43
2018-12-25T09:04:52.885Z,13.17
2018-12-25T09:07:21.808Z,11.53
2018-12-25T09:09:50.723Z,22.90
2018-12-25T09:12:19.555Z,12.00
2018-12-25T09:14:48.539Z,11.03
2018-12-25T09:17:17.350Z,12.70
2018-12-25T09:19:46.217Z,16.83
2018-12-25T09:22:15.181Z,11.63
2018-12-25T09:24:44.070Z,14.17
2018-12-25T09:27:12.922Z,19.97
2018-12-25T09:29:42.242Z,14.80
2018-12-25T09:32:11.493Z,14.60
2018-12-25T09:34:40.448Z,13.87
2018-12-25T09:37:10.119Z,14.40
2018-12-25T09:39:39.090Z,21.80
2018-12-25T09:42:07.959Z,14.20
2018-12-25T09:44:36.808Z,12.87
2018-12-25T09:47:05.783Z,18.27
2018-12-25T09:49:34.730Z,20.97
2018-12-25T09:52:03.620Z,16.30
2018-12-25T09:54:32.532Z,13.93
2018-12-25T09:57:01.493Z,15.57
2018-12-25T09:59:30.406Z,16.87
2018-12-25T10:01:59.299Z,14.80
2018-12-25T10:04:29.727Z,15.47
2018-12-25T10:06:58.632Z,15.60
2018-12-25T10:09:27.525Z,12.33
2018-12-25T10:11:56.475Z,13.73
2018-12-25T10:14:25.476Z,17.53
2018-12-25T10:16:54.354Z,18.40
2018-12-25T10:19:23.419Z,14.80
2018-12-25T10:21:52.462Z,12.40
2018-12-25T10:24:21.353Z,13.40
2018-12-25T10:26:50.252Z,12.43
2018-12-25T10:29:19.282Z,14.17
2018-12-25T10:31:48.315Z,15.80
2018-12-25T10:34:17.341Z,14.83
2018-12-25T10:36:46.232Z,14.50
2018-12-25T10:39:15.205Z,19.00
2018-12-25T10:41:44.041Z,13.10
2018-12-25T10:44:12.922Z,15.27
2018-12-25T10:46:41.822Z,16.90
2018-12-25T10:49:10.706Z,14.87
2018-12-25T10:51:39.550Z,13.60
2018-12-25T10:54:08.475Z,20.97
2018-12-25T10:56:37.321Z,18.73
2018-12-25T10:59:06.225Z,16.57
2018-12-25T11:01:35.528Z,14.03
2018-12-25T11:04:04.448Z,16.43
2018-12-25T11:06:33.300Z,18.43
2018-12-25T11:09:02.146Z,15.90
2018-12-25T11:11:31.256Z,16.37
2018-12-25T11:14:00.112Z,16.77
2018-12-25T11:16:29.033Z,14.53
2018-12-25T11:18:57.860Z,14.63
2018-12-25T11:21:26.720Z,13.83
2018-12-25T11:23:55.581Z,17.23
2018-12-25T11:26:24.485Z,15.17
2018-12-25T11:28:53.551Z,14.33
2018-12-25T11:31:23.000Z,19.67
2018-12-25T11:33:52.741Z,13.90
2018-12-25T11:36:21.627Z,15.13
2018-12-25T11:38:50.649Z,18.53
2018-12-25T11:41:19.552Z,22.50
2018-12-25T11:43:48.472Z,17.30
2018-12-25T11:46:17.357Z,21.23
2018-12-25T11:48:46.282Z,22.47
2018-12-25T11:51:15.186Z,15.70
2018-12-25T11:53:43.945Z,15.50
2018-12-25T11:56:12.858Z,18.03
2018-12-25T11:58:41.923Z,19.57
2018-12-25T12:01:10.809Z,25.50
2018-12-25T12:03:39.843Z,17.70
2018-12-25T12:06:08.682Z,15.23
2018-12-25T12:08:37.691Z,17.47
2018-12-25T12:11:06.509Z,18.80
2018-12-25T12:13:35.605Z,18.53
2018-12-25T12:16:04.469Z,17.23
2018-12-25T12:18:33.391Z,18.27
2018-12-25T12:21:02.310Z,20.07
2018-12-25T12:23:32.761Z,22.97
2018-12-25T12:26:02.658Z,18.93
2018-12-25T12:28:31.516Z,15.27
2018-12-25T12:31:01.139Z,21.13
2018-12-25T12:33:30.349Z,19.97
2018-12-25T12:35:59.240Z,14.20
2018-12-25T12:38:28.173Z,23.00
2018-12-25T12:40:57.028Z,18.73
2018-12-25T12:43:26.022Z,16.50
2018-12-25T12:45:54.976Z,17.20
2018-12-25T12:48:23.788Z,15.90
2018-12-25T12:50:52.735Z,15.60
2018-12-25T12:53:21.616Z,19.33
2018-12-25T12:55:50.527Z,14.27
2018-12-25T12:58:19.411Z,18.53
2018-12-25T13:00:48.434Z,19.97
2018-12-25T13:03:17.442Z,18.37
2018-12-25T13:05:46.533Z,16.93
2018-12-25T13:08:15.807Z,16.17
2018-12-25T13:10:44.731Z,20.03
2018-12-25T13:13:13.568Z,16.47
2018-12-25T13:15:42.477Z,15.83
2018-12-25T13:18:11.394Z,10.27
2018-12-25T13:20:40.347Z,12.43
2018-12-25T13:23:09.238Z,9.77
2018-12-25T13:25:38.187Z,9.90
2018-12-25T13:28:07.156Z,8.43
2018-12-25T13:30:36.201Z,10.53
2018-12-25T13:33:05.251Z,9.97
2018-12-25T13:35:34.252Z,10.30
2018-12-25T13:38:03.729Z,8.47
2018-12-25T13:40:32.550Z,8.13
2018-12-25T13:43:01.393Z,11.63
2018-12-25T13:45:30.892Z,8.60
2018-12-25T13:47:59.773Z,10.47
2018-12-25T13:50:28.583Z,11.93
2018-12-25T13:53:02.788Z,9.20
2018-12-25T13:55:29.348Z,10.60
2018-12-25T13:57:58.258Z,11.50
2018-12-25T14:00:27.193Z,9.77
2018-12-25T14:02:56.309Z,11.40
2018-12-25T14:05:25.313Z,10.23
2018-12-25T14:07:54.355Z,12.47
2018-12-25T14:10:23.281Z,12.33
2018-12-25T14:12:52.168Z,12.23
2018-12-25T14:15:21.033Z,11.37
2018-12-25T14:17:49.852Z,11.00
2018-12-25T14:20:18.703Z,17.80
2018-12-25T14:22:47.867Z,10.97
2018-12-25T14:25:16.729Z,12.23
2018-12-25T14:27:45.781Z,11.90
2018-12-25T14:30:14.699Z,10.57
2018-12-25T14:32:43.737Z,10.00
2018-12-25T14:35:12.839Z,11.23
2018-12-25T14:37:41.616Z,10.23
2018-12-25T14:40:10.539Z,10.57
2018-12-25T14:42:39.335Z,16.70
2018-12-25T14:45:08.321Z,11.77
2018-12-25T14:47:37.170Z,12.90
2018-12-25T14:50:08.452Z,12.57
2018-12-25T14:52:38.820Z,14.53
2018-12-25T14:55:07.940Z,12.40
2018-12-25T14:57:36.843Z,13.83
2018-12-25T15:00:08.655Z,17.50
2018-12-25T15:02:38.305Z,22.57
2018-12-25T15:05:08.174Z,14.80
2018-12-25T15:07:36.962Z,17.43
2018-12-25T15:10:07.307Z,18.13
2018-12-25T15:12:36.183Z,16.57
2018-12-25T15:15:05.537Z,20.13
2018-12-25T15:17:36.228Z,15.80
2018-12-25T15:20:06.171Z,17.57
2018-12-25T15:22:35.128Z,17.70
2018-12-25T15:25:04.267Z,17.90
2018-12-25T15:27:34.013Z,23.53
2018-12-25T15:30:04.783Z,15.87
2018-12-25T15:32:39.679Z,20.87
2018-12-25T15:35:10.883Z,19.50
2018-12-25T15:37:40.945Z,21.87
2018-12-25T15:40:10.021Z,21.63
2018-12-25T15:42:40.560Z,23.40
2018-12-25T15:45:10.500Z,19.50
2018-12-25T15:47:39.525Z,23.20
2018-12-25T15:50:08.858Z,30.93
2018-12-25T15:52:39.550Z,25.47
2018-12-25T15:55:08.768Z,19.80
2018-12-25T15:57:37.554Z,21.87
2018-12-25T16:00:09.281Z,18.87
2018-12-25T16:02:38.314Z,22.03
2018-12-25T16:05:07.408Z,20.70
2018-12-25T16:07:36.222Z,21.27
2018-12-25T16:10:06.138Z,22.10
2018-12-25T16:12:35.016Z,18.67
2018-12-25T16:15:04.444Z,19.80
2018-12-25T16:17:33.306Z,24.17
2018-12-25T16:20:02.332Z,21.67
2018-12-25T16:22:31.290Z,21.07
2018-12-25T16:25:00.299Z,21.20
2018-12-25T16:27:29.085Z,21.37
2018-12-25T16:29:58.013Z,18.70
2018-12-25T16:32:26.912Z,20.80
2018-12-25T16:34:55.810Z,21.10
2018-12-25T16:37:24.705Z,27.77
2018-12-25T16:39:53.581Z,22.77
2018-12-25T16:42:22.465Z,19.83
2018-12-25T16:44:51.331Z,21.60
2018-12-25T16:47:20.231Z,22.83
2018-12-25T16:49:49.261Z,18.37
2018-12-25T16:52:18.250Z,17.73
2018-12-25T16:54:47.206Z,19.30
2018-12-25T16:57:16.199Z,21.63
2018-12-25T16:59:45.114Z,19.13
2018-12-25T17:02:14.120Z,17.30
2018-12-25T17:04:43.082Z,20.80
2018-12-25T17:07:11.947Z,17.90
2018-12-25T17:09:40.893Z,20.60
2018-12-25T17:12:10.822Z,15.93
2018-12-25T17:14:39.770Z,16.00
2018-12-25T17:17:09.961Z,14.40
2018-12-25T17:19:40.380Z,15.40
2018-12-25T17:22:10.661Z,16.97
2018-12-25T17:24:39.483Z,17.03
2018-12-25T17:27:08.500Z,20.90
2018-12-25T17:29:37.377Z,22.17
2018-12-25T17:32:06.663Z,14.83
2018-12-25T17:34:35.587Z,21.27
2018-12-25T17:37:06.502Z,22.20
2018-12-25T17:39:35.497Z,26.10
2018-12-25T17:42:04.745Z,19.73
2018-12-25T17:44:33.927Z,19.30
2018-12-25T17:47:02.850Z,17.63
2018-12-25T17:49:33.629Z,20.93
2018-12-25T17:52:04.285Z,26.30
2018-12-25T17:54:33.232Z,24.30
2018-12-25T17:57:02.129Z,22.23
2018-12-25T17:59:31.112Z,23.10
2018-12-25T18:01:59.995Z,19.70
2018-12-25T18:04:28.871Z,27.13
2018-12-25T18:06:57.775Z,26.03
2018-12-25T18:09:28.365Z,25.93
2018-12-25T18:11:57.326Z,21.57
2018-12-25T18:14:26.230Z,27.70
2018-12-25T18:16:57.904Z,25.37
2018-12-25T18:19:26.835Z,26.30
2018-12-25T18:21:55.691Z,24.60
2018-12-25T18:24:24.747Z,25.07
2018-12-25T18:26:53.714Z,23.97
2018-12-25T18:29:22.556Z,31.40
2018-12-25T18:31:51.963Z,24.13
2018-12-25T18:34:20.959Z,32.00
2018-12-25T18:36:49.820Z,39.57
2018-12-25T18:39:18.721Z,32.93
2018-12-25T18:41:48.934Z,25.50
2018-12-25T18:44:18.214Z,29.13
2018-12-25T18:46:47.080Z,24.30
2018-12-25T18:49:15.923Z,31.00
2018-12-25T18:51:44.863Z,28.67
2018-12-25T18:54:13.997Z,29.83
2018-12-25T18:56:42.896Z,27.57
2018-12-25T18:59:11.741Z,24.40
2018-12-25T19:01:40.649Z,31.23
2018-12-25T19:04:09.544Z,31.17
2018-12-25T19:06:38.658Z,25.00
2018-12-25T19:09:07.766Z,32.57
2018-12-25T19:11:36.682Z,32.20
2018-12-25T19:14:05.814Z,26.30
2018-12-25T19:16:35.299Z,23.30
2018-12-25T19:19:04.194Z,28.97
2018-12-25T19:21:33.179Z,26.47
2018-12-25T19:24:02.232Z,26.77
2018-12-25T19:26:31.200Z,24.27
2018-12-25T19:29:00.085Z,32.70
2018-12-25T19:31:29.223Z,26.73
2018-12-25T19:33:58.325Z,25.40
2018-12-25T19:36:27.142Z,24.40
2018-12-25T19:38:55.966Z,28.40
2018-12-25T19:41:24.879Z,33.60
2018-12-25T19:43:53.831Z,25.20
2018-12-25T19:46:22.773Z,29.07
2018-12-25T19:48:51.703Z,27.17
2018-12-25T19:51:20.866Z,26.73
2018-12-25T19:53:49.715Z,28.00
2018-12-25T19:56:18.630Z,27.07
2018-12-25T19:58:47.618Z,26.33
2018-12-25T20:01:16.604Z,29.47
2018-12-25T20:03:45.966Z,23.63
2018-12-25T20:06:17.709Z,22.80
2018-12-25T20:08:49.413Z,22.13
2018-12-25T20:11:19.435Z,22.27
2018-12-25T20:13:51.122Z,27.33
2018-12-25T20:16:21.248Z,24.40
2018-12-25T20:18:52.949Z,23.03
2018-12-25T20:21:24.569Z,21.63
2018-12-25T20:23:54.706Z,22.73
2018-12-25T20:26:26.420Z,20.17
2018-12-25T20:28:58.082Z,20.50
2018-12-25T20:31:30.040Z,22.23
2018-12-25T20:34:00.196Z,25.93
2018-12-25T20:36:31.289Z,21.60
2018-12-25T20:39:02.958Z,20.97
2018-12-25T20:41:35.384Z,22.10
2018-12-25T20:44:07.139Z,18.47
2018-12-25T20:46:38.865Z,20.93
2018-12-25T20:49:10.596Z,20.83
2018-12-25T20:51:40.779Z,26.07
2018-12-25T20:54:15.042Z,17.53
2018-12-25T20:56:45.187Z,18.37
2018-12-25T20:59:16.877Z,22.07
2018-12-25T21:01:48.577Z,18.30
2018-12-25T21:04:21.771Z,20.13
2018-12-25T21:06:53.461Z,19.23
2018-12-25T21:09:23.745Z,17.80
2018-12-25T21:11:55.435Z,19.67
2018-12-25T21:14:26.653Z,17.43
2018-12-25T21:16:58.249Z,19.73
2018-12-25T21:19:29.933Z,19.80
2018-12-25T21:22:01.610Z,20.60
2018-12-25T21:24:33.245Z,15.40
2018-12-25T21:27:04.915Z,21.37
2018-12-25T21:29:33.817Z,19.63
2018-12-25T21:32:03.373Z,26.13
2018-12-25T21:34:32.304Z,18.27
2018-12-25T21:37:01.524Z,20.00
2018-12-25T21:39:30.606Z,17.00
2018-12-25T21:41:59.878Z,17.73
2018-12-25T21:44:28.920Z,18.30
2018-12-25T21:46:58.487Z,17.73
2018-12-25T21:49:27.667Z,19.63
2018-12-25T21:51:56.527Z,18.70
2018-12-25T21:54:25.517Z,21.67
2018-12-25T21:56:54.595Z,24.07
2018-12-25T21:59:24.089Z,19.77
2018-12-25T22:01:52.939Z,26.00
2018-12-25T22:04:21.871Z,25.87
2018-12-25T22:06:50.769Z,26.07
2018-12-25T22:09:19.666Z,24.87
2018-12-25T22:11:48.598Z,28.23
2018-12-25T22:14:17.434Z,34.13
2018-12-25T22:16:46.346Z,24.47
2018-12-25T22:19:15.211Z,29.53
2018-12-25T22:21:44.098Z,32.30
2018-12-25T22:24:12.922Z,28.80
2018-12-25T22:26:42.296Z,29.27
2018-12-25T22:29:11.221Z,28.20
2018-12-25T22:31:40.655Z,31.93
2018-12-25T22:34:10.236Z,29.30
2018-12-25T22:36:39.220Z,35.17
2018-12-25T22:39:08.086Z,27.90
2018-12-25T22:41:36.966Z,31.63
2018-12-25T22:44:05.800Z,26.07
2018-12-25T22:46:34.726Z,28.13
2018-12-25T22:49:03.656Z,50.20
2018-12-25T22:51:32.592Z,36.67
2018-12-25T22:54:01.468Z,30.80
2018-12-25T22:56:30.412Z,31.40
2018-12-25T22:58:59.331Z,28.80
2018-12-25T23:01:28.207Z,35.27
2018-12-25T23:03:57.088Z,30.83
2018-12-25T23:06:25.959Z,30.57
2018-12-25T23:08:54.844Z,31.83
2018-12-25T23:11:23.834Z,31.00
2018-12-25T23:13:52.657Z,27.30
2018-12-25T23:16:21.512Z,34.70
2018-12-25T23:18:50.373Z,33.27
2018-12-25T23:21:19.313Z,27.00
2018-12-25T23:23:48.230Z,36.10
2018-12-25T23:26:17.121Z,34.43
2018-12-25T23:28:46.068Z,38.70
2018-12-25T23:31:15.367Z,31.40
2018-12-25T23:33:46.040Z,34.57
2018-12-25T23:36:14.944Z,32.57
2018-12-25T23:38:43.804Z,30.50
2018-12-25T23:41:12.701Z,36.93
2018-12-25T23:43:41.595Z,34.70
2018-12-25T23:46:10.557Z,29.90
2018-12-25T23:48:39.542Z,34.27
2018-12-25T23:51:08.472Z,34.00
2018-12-25T23:53:37.236Z,36.20
2018-12-25T23:56:06.144Z,34.90
2018-12-25T23:58:35.041Z,36.87
